createdAt,value
2024-05-09T00:00:46.063Z,150396.55
2024-05-09T00:01:48.344Z,150323.75
2024-05-09T00:02:50.302Z,150387.62
2024-05-09T00:03:54.059Z,150339.09
2024-05-09T00:04:56.196Z,150368.45
2024-05-09T00:05:58.384Z,150344.19
2024-05-09T00:07:02.545Z,150377.38
2024-05-09T00:08:06.393Z,150277.81
2024-05-09T00:09:08.442Z,150250.97
2024-05-09T00:10:22.059Z,150257.33
2024-05-09T00:11:17.088Z,150169.19
2024-05-09T00:12:19.315Z,150272.66
2024-05-09T00:13:21.325Z,150201.16
2024-05-09T00:14:23.409Z,150216.48
2024-05-09T00:15:25.762Z,150275.23
2024-05-09T00:16:28.243Z,150295.66
2024-05-09T00:17:31.611Z,150288.00
2024-05-09T00:18:33.795Z,150308.42
2024-05-09T00:19:36.090Z,150285.42
2024-05-09T00:20:40.847Z,150263.73
2024-05-09T00:21:42.224Z,150326.33
2024-05-09T00:22:44.962Z,150317.34
2024-05-09T00:23:47.001Z,150316.09
2024-05-09T00:24:48.916Z,150267.56
2024-05-09T00:25:51.002Z,150277.81
2024-05-09T00:26:53.038Z,150363.34
2024-05-09T00:27:55.036Z,150364.62
2024-05-09T00:28:56.986Z,150353.13
2024-05-09T00:29:59.036Z,150311.00
2024-05-09T00:31:02.104Z,150321.19
2024-05-09T00:32:06.138Z,150295.66
2024-05-09T00:33:10.670Z,150295.66
2024-05-09T00:34:13.100Z,150325.02
2024-05-09T00:35:15.184Z,150355.69
2024-05-09T00:36:17.512Z,150323.75
2024-05-09T00:37:19.512Z,150377.38
2024-05-09T00:38:21.484Z,150196.06
2024-05-09T00:39:23.484Z,150252.23
2024-05-09T00:40:35.339Z,150367.19
2024-05-09T00:41:29.640Z,150414.47
2024-05-09T00:42:35.963Z,150316.09
2024-05-09T00:43:39.424Z,150377.38
2024-05-09T00:44:41.614Z,150307.16
2024-05-09T00:45:44.141Z,150277.81
2024-05-09T00:46:46.544Z,150249.67
2024-05-09T00:47:48.990Z,150208.83
2024-05-09T00:48:51.472Z,150203.72
2024-05-09T00:49:53.632Z,150252.23
2024-05-09T00:50:57.238Z,150270.14
2024-05-09T00:52:00.089Z,150231.81
2024-05-09T00:53:03.499Z,150295.66
2024-05-09T00:54:06.139Z,150173.03
2024-05-09T00:55:08.142Z,150254.81
2024-05-09T00:56:11.903Z,150341.66
2024-05-09T00:57:14.498Z,150224.16
2024-05-09T00:58:20.039Z,150211.39
2024-05-09T00:59:23.298Z,150267.56
2024-05-09T01:00:31.808Z,150201.16
2024-05-09T01:01:30.244Z,150134.75
2024-05-09T01:02:32.397Z,150184.53
2024-05-09T01:03:34.639Z,150160.27
2024-05-09T01:04:36.878Z,150197.33
2024-05-09T01:05:40.244Z,150167.94
2024-05-09T01:06:42.656Z,150167.94
2024-05-09T01:07:44.890Z,150150.03
2024-05-09T01:08:47.182Z,150124.53
2024-05-09T01:09:49.121Z,150162.84
2024-05-09T01:10:52.070Z,150174.33
2024-05-09T01:11:55.478Z,150143.69
2024-05-09T01:12:58.787Z,150198.62
2024-05-09T01:14:01.560Z,150133.44
2024-05-09T01:15:04.288Z,150104.11
2024-05-09T01:16:06.787Z,150247.14
2024-05-09T01:17:08.949Z,150240.73
2024-05-09T01:18:12.610Z,150184.53
2024-05-09T01:19:22.063Z,150226.72
2024-05-09T01:20:36.409Z,150142.42
2024-05-09T01:21:28.214Z,150099.02
2024-05-09T01:22:31.452Z,150150.03
2024-05-09T01:23:33.707Z,150213.92
2024-05-09T01:24:36.719Z,150210.13
2024-05-09T01:25:39.045Z,150229.25
2024-05-09T01:26:41.491Z,150150.03
2024-05-09T01:27:44.267Z,150155.17
2024-05-09T01:28:46.360Z,150219.06
2024-05-09T01:29:48.578Z,150173.03
2024-05-09T01:30:50.997Z,150087.53
2024-05-09T01:31:53.507Z,150162.84
2024-05-09T01:32:55.591Z,150206.30
2024-05-09T01:33:57.725Z,150170.50
2024-05-09T01:35:00.190Z,150211.39
2024-05-09T01:36:02.634Z,150137.28
2024-05-09T01:37:04.641Z,150229.25
2024-05-09T01:38:06.805Z,150189.61
2024-05-09T01:39:09.233Z,150152.61
2024-05-09T01:40:15.307Z,150189.61
2024-05-09T01:41:15.170Z,150167.94
2024-05-09T01:42:17.312Z,150165.36
2024-05-09T01:43:19.285Z,150252.23
2024-05-09T01:44:21.350Z,150194.80
2024-05-09T01:45:24.234Z,150219.06
2024-05-09T01:46:26.329Z,150231.81
2024-05-09T01:47:28.973Z,150257.33
2024-05-09T01:48:31.292Z,150242.05
2024-05-09T01:49:36.997Z,150242.05
2024-05-09T01:50:42.387Z,150270.14
2024-05-09T01:51:43.818Z,150289.25
2024-05-09T01:52:45.848Z,150268.83
2024-05-09T01:53:47.937Z,150288.00
2024-05-09T01:54:49.912Z,150148.78
2024-05-09T01:55:52.134Z,150217.75
2024-05-09T01:56:54.786Z,150196.06
2024-05-09T01:57:57.472Z,150174.33
2024-05-09T01:58:59.471Z,150179.42
2024-05-09T02:00:02.390Z,150130.92
2024-05-09T02:01:04.473Z,150109.20
2024-05-09T02:02:06.677Z,150123.27
2024-05-09T02:03:12.328Z,150216.48
2024-05-09T02:04:14.461Z,150146.25
2024-05-09T02:05:16.940Z,150181.94
2024-05-09T02:06:19.193Z,150142.42
2024-05-09T02:07:21.142Z,150079.86
2024-05-09T02:08:23.721Z,150138.59
2024-05-09T02:09:25.767Z,150139.84
2024-05-09T02:10:32.479Z,150141.11
2024-05-09T02:11:32.047Z,150091.34
2024-05-09T02:12:34.291Z,150133.44
2024-05-09T02:13:37.029Z,150125.78
2024-05-09T02:14:39.186Z,150014.80
2024-05-09T02:15:42.437Z,150073.47
2024-05-09T02:16:45.003Z,150064.53
2024-05-09T02:17:47.143Z,150129.63
2024-05-09T02:18:49.434Z,150134.75
2024-05-09T02:19:52.955Z,150120.69
2024-05-09T02:20:55.161Z,150116.86
2024-05-09T02:21:57.102Z,150173.03
2024-05-09T02:22:59.118Z,150198.62
2024-05-09T02:24:01.369Z,150169.19
2024-05-09T02:25:03.864Z,150193.44
2024-05-09T02:26:06.371Z,150190.92
2024-05-09T02:27:08.356Z,150212.66
2024-05-09T02:28:10.445Z,150196.06
2024-05-09T02:29:12.600Z,150157.70
2024-05-09T02:30:22.807Z,150099.02
2024-05-09T02:31:20.245Z,150170.50
2024-05-09T02:32:22.320Z,150165.36
2024-05-09T02:33:24.485Z,150192.19
2024-05-09T02:34:26.568Z,150201.16
2024-05-09T02:35:30.526Z,150175.59
2024-05-09T02:36:32.706Z,150171.77
2024-05-09T02:37:34.576Z,150183.27
2024-05-09T02:38:36.542Z,150134.75
2024-05-09T02:39:38.646Z,150150.03
2024-05-09T02:40:41.107Z,150193.44
2024-05-09T02:41:44.269Z,150174.33
2024-05-09T02:42:46.479Z,150183.27
2024-05-09T02:43:48.506Z,150171.77
2024-05-09T02:44:50.579Z,150167.94
2024-05-09T02:45:52.816Z,150160.27
2024-05-09T02:46:54.946Z,150173.03
2024-05-09T02:47:57.442Z,150206.30
2024-05-09T02:48:59.750Z,150206.30
2024-05-09T02:50:03.664Z,150288.00
2024-05-09T02:51:06.762Z,150299.50
2024-05-09T02:52:08.853Z,150271.41
2024-05-09T02:53:12.056Z,150252.23
2024-05-09T02:54:14.796Z,150244.58
2024-05-09T02:55:16.710Z,150285.42
2024-05-09T02:56:19.015Z,150314.83
2024-05-09T02:57:21.024Z,150308.42
2024-05-09T02:58:23.183Z,150249.67
2024-05-09T02:59:25.642Z,150304.59
2024-05-09T03:00:36.763Z,150272.66
2024-05-09T03:01:32.099Z,150267.56
2024-05-09T03:02:34.120Z,150290.56
2024-05-09T03:03:36.489Z,150349.28
2024-05-09T03:04:42.115Z,150253.50
2024-05-09T03:05:44.960Z,150282.91
2024-05-09T03:06:47.678Z,150307.16
2024-05-09T03:07:49.708Z,150285.42
2024-05-09T03:08:51.647Z,150331.42
2024-05-09T03:09:53.574Z,150346.75
2024-05-09T03:10:58.040Z,150286.73
2024-05-09T03:12:00.243Z,150300.75
2024-05-09T03:13:10.375Z,150362.09
2024-05-09T03:14:16.449Z,150371.02
2024-05-09T03:15:18.504Z,150360.78
2024-05-09T03:16:21.387Z,150321.19
2024-05-09T03:17:23.578Z,150356.95
2024-05-09T03:18:25.753Z,150367.19
2024-05-09T03:19:27.801Z,150367.19
2024-05-09T03:20:34.463Z,150296.92
2024-05-09T03:21:40.561Z,150392.72
2024-05-09T03:22:42.584Z,150410.63
2024-05-09T03:23:44.580Z,150336.52
2024-05-09T03:24:46.667Z,150364.62
2024-05-09T03:25:48.712Z,150436.16
2024-05-09T03:26:51.065Z,150341.66
2024-05-09T03:27:53.705Z,150367.19
2024-05-09T03:28:55.679Z,150436.16
2024-05-09T03:29:57.604Z,150465.56
2024-05-09T03:30:59.607Z,150475.77
2024-05-09T03:32:01.862Z,150512.81
2024-05-09T03:33:04.912Z,150461.73
2024-05-09T03:34:07.376Z,150512.81
2024-05-09T03:35:09.690Z,150488.53
2024-05-09T03:36:12.115Z,150484.70
2024-05-09T03:37:14.013Z,150446.41
2024-05-09T03:38:16.202Z,150517.95
2024-05-09T03:39:18.330Z,150423.39
2024-05-09T03:40:26.140Z,150451.50
2024-05-09T03:41:24.931Z,150463.00
2024-05-09T03:42:27.767Z,150512.81
2024-05-09T03:43:29.949Z,150589.53
2024-05-09T03:44:32.959Z,150540.92
2024-05-09T03:45:34.961Z,150463.00
2024-05-09T03:46:38.350Z,150436.16
2024-05-09T03:47:40.732Z,150501.34
2024-05-09T03:48:42.917Z,150482.17
2024-05-09T03:49:44.999Z,150528.16
2024-05-09T03:50:47.422Z,150405.53
2024-05-09T03:51:49.576Z,150454.06
2024-05-09T03:52:51.575Z,150423.39
2024-05-09T03:53:53.525Z,150425.97
2024-05-09T03:54:55.511Z,150525.63
2024-05-09T03:55:57.593Z,150494.94
2024-05-09T03:57:00.833Z,150379.95
2024-05-09T03:58:03.219Z,150494.94
2024-05-09T03:59:06.396Z,150425.97
2024-05-09T04:00:17.853Z,150452.75
2024-05-09T04:01:16.001Z,150546.06
2024-05-09T04:02:18.107Z,150569.08
2024-05-09T04:03:20.552Z,150599.78
2024-05-09T04:04:22.899Z,150581.84
2024-05-09T04:05:24.834Z,150506.45
2024-05-09T04:06:27.016Z,150535.83
2024-05-09T04:07:29.067Z,150425.97
2024-05-09T04:08:31.240Z,150454.06
2024-05-09T04:09:33.223Z,150521.78
2024-05-09T04:10:35.746Z,150456.59
2024-05-09T04:11:37.957Z,150454.06
2024-05-09T04:12:40.095Z,150525.63
2024-05-09T04:13:42.136Z,150552.44
2024-05-09T04:14:44.381Z,150579.28
2024-05-09T04:15:46.526Z,150627.89
2024-05-09T04:16:48.815Z,150638.14
2024-05-09T04:17:51.010Z,150680.30
2024-05-09T04:18:53.572Z,150658.59
2024-05-09T04:19:56.886Z,150675.20
2024-05-09T04:20:59.723Z,150753.22
2024-05-09T04:22:01.744Z,150719.94
2024-05-09T04:23:04.711Z,150778.78
2024-05-09T04:24:06.762Z,150638.14
2024-05-09T04:25:08.782Z,150676.47
2024-05-09T04:26:11.210Z,150732.77
2024-05-09T04:27:13.212Z,150684.14
2024-05-09T04:28:16.286Z,150740.39
2024-05-09T04:29:19.424Z,150726.34
2024-05-09T04:30:30.628Z,150819.69
2024-05-09T04:31:25.441Z,150719.94
2024-05-09T04:32:27.699Z,150722.52
2024-05-09T04:33:30.178Z,150817.16
2024-05-09T04:34:35.201Z,150744.22
2024-05-09T04:35:37.853Z,150841.45
2024-05-09T04:36:43.204Z,150653.48
2024-05-09T04:37:44.062Z,150653.48
2024-05-09T04:38:46.013Z,150766.00
2024-05-09T04:39:47.960Z,150841.45
2024-05-09T04:40:50.186Z,150996.31
2024-05-09T04:41:52.268Z,151052.62
2024-05-09T04:42:55.535Z,150980.95
2024-05-09T04:43:57.553Z,151037.25
2024-05-09T04:44:59.770Z,151217.73
2024-05-09T04:46:01.846Z,151149.88
2024-05-09T04:47:04.453Z,151252.31
2024-05-09T04:48:07.751Z,151056.45
2024-05-09T04:49:10.004Z,151149.88
2024-05-09T04:50:17.707Z,151222.84
2024-05-09T04:51:16.160Z,151279.23
2024-05-09T04:52:18.152Z,151279.23
2024-05-09T04:53:21.091Z,151301.03
2024-05-09T04:54:33.507Z,151236.94
2024-05-09T04:55:28.542Z,151281.81
2024-05-09T04:56:31.365Z,151324.09
2024-05-09T04:57:33.447Z,151365.06
2024-05-09T04:58:37.159Z,151333.05
2024-05-09T04:59:41.917Z,151254.84
2024-05-09T05:00:44.357Z,151349.69
2024-05-09T05:01:46.458Z,151339.42
2024-05-09T05:02:48.632Z,151384.28
2024-05-09T05:03:50.869Z,151427.80
2024-05-09T05:04:53.923Z,151452.19
2024-05-09T05:05:56.372Z,151418.84
2024-05-09T05:07:02.512Z,151454.72
2024-05-09T05:08:04.774Z,151488.06
2024-05-09T05:09:06.743Z,151485.48
2024-05-09T05:10:11.975Z,151403.47
2024-05-09T05:11:13.376Z,151363.75
2024-05-09T05:12:15.699Z,151400.94
2024-05-09T05:13:19.289Z,151334.31
2024-05-09T05:14:22.181Z,151456.03
2024-05-09T05:15:24.211Z,151475.22
2024-05-09T05:16:26.279Z,151531.59
2024-05-09T05:17:28.434Z,151608.56
2024-05-09T05:18:30.886Z,151564.98
2024-05-09T05:19:33.239Z,151495.70
2024-05-09T05:20:35.379Z,151582.91
2024-05-09T05:21:37.416Z,151588.06
2024-05-09T05:22:39.352Z,151358.64
2024-05-09T05:23:41.688Z,151275.38
2024-05-09T05:24:44.996Z,151203.63
2024-05-09T05:25:49.049Z,151449.61
2024-05-09T05:26:51.354Z,151112.78
2024-05-09T05:27:55.568Z,151253.59
2024-05-09T05:28:57.908Z,151480.38
2024-05-09T05:30:00.120Z,151475.22
2024-05-09T05:31:02.035Z,151549.59
2024-05-09T05:32:06.273Z,151527.73
2024-05-09T05:33:14.331Z,151635.45
2024-05-09T05:34:16.705Z,151447.03
2024-05-09T05:35:19.035Z,151567.52
2024-05-09T05:36:21.084Z,151621.38
2024-05-09T05:37:23.805Z,151703.41
2024-05-09T05:38:28.365Z,151720.11
2024-05-09T05:39:30.567Z,151788.02
2024-05-09T05:40:37.085Z,151777.78
2024-05-09T05:41:38.675Z,151662.38
2024-05-09T05:42:40.772Z,151673.92
2024-05-09T05:43:42.970Z,151688.00
2024-05-09T05:44:44.852Z,151709.83
2024-05-09T05:45:46.859Z,151791.86
2024-05-09T05:46:49.077Z,151813.69
2024-05-09T05:47:53.503Z,151689.31
2024-05-09T05:48:55.734Z,151594.45
2024-05-09T05:49:57.854Z,151653.42
2024-05-09T05:51:02.656Z,151788.02
2024-05-09T05:52:04.525Z,151721.37
2024-05-09T05:53:07.711Z,151716.25
2024-05-09T05:54:10.587Z,151785.47
2024-05-09T05:55:12.629Z,151812.42
2024-05-09T05:56:15.880Z,151931.72
2024-05-09T05:57:19.033Z,151795.72
2024-05-09T05:58:21.198Z,151480.38
2024-05-09T05:59:23.722Z,151477.80
2024-05-09T06:00:34.088Z,151611.09
2024-05-09T06:01:32.245Z,151811.11
2024-05-09T06:02:34.363Z,151900.97
2024-05-09T06:03:36.742Z,152036.95
2024-05-09T06:04:39.144Z,151844.53
2024-05-09T06:05:41.352Z,151870.17
2024-05-09T06:06:43.482Z,151958.67
2024-05-09T06:07:45.753Z,151798.30
2024-05-09T06:08:47.979Z,151908.66
2024-05-09T06:09:50.560Z,151959.94
2024-05-09T06:10:53.537Z,151915.05
2024-05-09T06:11:55.726Z,151877.86
2024-05-09T06:12:57.703Z,151985.63
2024-05-09T06:14:00.736Z,152083.17
2024-05-09T06:15:03.277Z,152001.03
2024-05-09T06:16:06.255Z,152106.30
2024-05-09T06:17:08.421Z,151863.73
2024-05-09T06:18:12.128Z,152067.72
2024-05-09T06:19:14.827Z,152076.80
2024-05-09T06:20:23.904Z,152166.61
2024-05-09T06:21:22.584Z,152201.28
2024-05-09T06:22:24.715Z,152206.41
2024-05-09T06:23:30.917Z,152193.59
2024-05-09T06:24:35.112Z,152250.06
2024-05-09T06:25:38.081Z,152280.84
2024-05-09T06:26:44.063Z,152262.89
2024-05-09T06:27:48.696Z,152205.14
2024-05-09T06:28:51.515Z,152196.13
2024-05-09T06:29:53.758Z,152260.31
2024-05-09T06:30:55.848Z,152342.56
2024-05-09T06:32:00.261Z,152286.02
2024-05-09T06:33:02.510Z,152183.30
2024-05-09T06:34:04.933Z,152301.44
2024-05-09T06:35:08.157Z,152332.27
2024-05-09T06:36:11.681Z,152334.86
2024-05-09T06:37:14.731Z,151449.61
2024-05-09T06:38:16.784Z,151567.52
2024-05-09T06:39:19.518Z,151402.20
2024-05-09T06:40:25.857Z,151434.22
2024-05-09T06:41:26.811Z,151553.44
2024-05-09T06:42:28.946Z,151675.19
2024-05-09T06:43:32.201Z,151768.81
2024-05-09T06:44:34.728Z,151916.38
2024-05-09T06:45:37.177Z,151966.38
2024-05-09T06:46:39.873Z,151449.61
2024-05-09T06:47:42.663Z,151482.91
2024-05-09T06:48:45.592Z,151529.06
2024-05-09T06:49:49.554Z,151811.11
2024-05-09T06:50:52.074Z,151988.16
2024-05-09T06:51:54.397Z,151931.72
2024-05-09T06:52:56.438Z,152060.02
2024-05-09T06:53:59.555Z,152090.87
2024-05-09T06:55:01.435Z,152067.72
2024-05-09T06:56:04.595Z,152198.70
2024-05-09T06:57:06.709Z,152298.84
2024-05-09T06:58:08.774Z,152323.28
2024-05-09T06:59:10.823Z,152291.14
2024-05-09T07:00:22.679Z,152347.69
2024-05-09T07:01:17.829Z,152396.48
2024-05-09T07:02:19.837Z,152433.77
2024-05-09T07:03:21.987Z,152018.97
2024-05-09T07:04:24.264Z,151516.25
2024-05-09T07:05:26.661Z,151617.53
2024-05-09T07:06:28.922Z,151780.36
2024-05-09T07:07:30.920Z,152036.95
2024-05-09T07:08:33.079Z,152144.81
2024-05-09T07:09:35.252Z,152140.97
2024-05-09T07:10:38.543Z,151913.78
2024-05-09T07:11:40.785Z,151761.12
2024-05-09T07:12:42.886Z,151980.50
2024-05-09T07:13:45.377Z,152058.75
2024-05-09T07:14:47.585Z,152162.77
2024-05-09T07:15:49.724Z,152114.00
2024-05-09T07:16:51.925Z,151938.16
2024-05-09T07:17:54.137Z,151874.02
2024-05-09T07:18:56.518Z,151827.81
2024-05-09T07:19:58.813Z,152147.34
2024-05-09T07:21:01.295Z,152048.52
2024-05-09T07:22:03.687Z,152192.27
2024-05-09T07:23:08.331Z,152219.23
2024-05-09T07:24:10.760Z,151847.06
2024-05-09T07:25:13.061Z,151621.38
2024-05-09T07:26:17.350Z,151625.22
2024-05-09T07:27:19.532Z,151689.31
2024-05-09T07:28:21.556Z,151800.88
2024-05-09T07:29:25.699Z,151708.56
2024-05-09T07:30:33.276Z,151613.69
2024-05-09T07:31:31.709Z,151822.70
2024-05-09T07:32:35.040Z,151707.25
2024-05-09T07:33:37.249Z,151770.09
2024-05-09T07:34:39.281Z,151614.95
2024-05-09T07:35:42.063Z,151903.50
2024-05-09T07:36:44.492Z,151814.95
2024-05-09T07:37:46.510Z,151989.47
2024-05-09T07:38:48.639Z,152144.81
2024-05-09T07:39:50.861Z,152257.78
2024-05-09T07:40:52.921Z,152325.87
2024-05-09T07:41:54.966Z,151875.28
2024-05-09T07:42:59.180Z,151999.72
2024-05-09T07:44:01.481Z,152198.70
2024-05-09T07:45:21.588Z,152279.58
2024-05-09T07:47:13.933Z,152302.70
2024-05-09T07:48:28.503Z,152301.44
2024-05-09T07:52:23.542Z,152262.89
2024-05-09T07:53:34.663Z,152465.88
2024-05-09T07:54:01.686Z,152518.53
2024-05-09T07:55:06.430Z,152464.56
2024-05-09T07:56:10.495Z,152287.28
2024-05-09T07:57:13.844Z,152298.84
2024-05-09T07:58:16.054Z,152286.02
2024-05-09T07:59:18.103Z,152337.44
2024-05-09T08:00:23.759Z,152278.31
2024-05-09T08:01:25.474Z,152324.56
2024-05-09T08:02:27.874Z,152363.09
2024-05-09T08:03:32.796Z,152337.44
2024-05-09T08:04:34.980Z,152266.75
2024-05-09T08:05:37.233Z,152447.86
2024-05-09T08:06:39.725Z,152438.89
2024-05-09T08:07:41.750Z,152468.41
2024-05-09T08:08:45.769Z,152468.41
2024-05-09T08:09:47.700Z,152469.72
2024-05-09T08:10:51.105Z,152476.12
2024-05-09T08:11:53.231Z,152415.75
2024-05-09T08:12:55.504Z,152435.03
2024-05-09T08:13:57.542Z,152134.53
2024-05-09T08:14:59.992Z,151841.95
2024-05-09T08:16:02.231Z,151708.56
2024-05-09T08:17:05.232Z,151570.09
2024-05-09T08:18:11.349Z,151779.05
2024-05-09T08:19:13.649Z,151625.22
2024-05-09T08:20:22.986Z,151838.09
2024-05-09T08:21:19.727Z,152018.97
2024-05-09T08:22:21.906Z,151836.84
2024-05-09T08:23:24.200Z,151836.84
2024-05-09T08:24:26.273Z,151907.34
2024-05-09T08:25:29.169Z,152034.38
2024-05-09T08:26:31.462Z,151995.86
2024-05-09T08:27:34.071Z,152187.14
2024-05-09T08:28:35.968Z,152310.41
2024-05-09T08:29:37.966Z,152360.52
2024-05-09T08:30:40.562Z,152316.84
2024-05-09T08:31:42.817Z,152297.58
2024-05-09T08:32:44.941Z,152129.41
2024-05-09T08:33:48.503Z,152194.84
2024-05-09T08:34:50.746Z,152357.97
2024-05-09T08:35:52.905Z,152413.17
2024-05-09T08:36:55.183Z,152408.05
2024-05-09T08:38:01.332Z,152080.64
2024-05-09T08:39:03.698Z,152260.31
2024-05-09T08:40:11.039Z,152286.02
2024-05-09T08:41:13.120Z,152351.53
2024-05-09T08:42:17.679Z,152386.23
2024-05-09T08:43:21.514Z,152383.64
2024-05-09T08:44:23.638Z,152332.27
2024-05-09T08:45:26.951Z,152341.30
2024-05-09T08:46:30.658Z,152230.80
2024-05-09T08:47:32.887Z,152278.31
2024-05-09T08:48:39.688Z,152411.91
2024-05-09T08:49:42.038Z,152488.95
2024-05-09T08:50:45.602Z,152381.06
2024-05-09T08:51:48.098Z,152365.69
2024-05-09T08:52:50.324Z,152373.39
2024-05-09T08:53:52.245Z,152378.53
2024-05-09T08:54:55.191Z,152401.66
2024-05-09T08:56:00.670Z,152303.97
2024-05-09T08:57:05.564Z,152302.70
2024-05-09T08:58:11.328Z,152377.25
2024-05-09T08:59:20.371Z,152404.19
2024-05-09T09:00:33.388Z,152075.47
2024-05-09T09:01:31.397Z,152133.25
2024-05-09T09:02:37.249Z,152126.81
2024-05-09T09:03:40.563Z,152057.48
2024-05-09T09:04:47.349Z,152115.27
2024-05-09T09:06:08.778Z,152116.53
2024-05-09T09:07:12.681Z,151884.30
2024-05-09T09:08:15.736Z,151802.14
2024-05-09T09:09:18.216Z,152110.14
2024-05-09T09:10:25.447Z,152219.23
2024-05-09T09:11:25.330Z,151998.45
2024-05-09T09:12:28.035Z,152049.78
2024-05-09T09:13:31.464Z,152135.80
2024-05-09T09:14:33.595Z,152121.70
2024-05-09T09:15:47.261Z,151992.02
2024-05-09T09:16:49.359Z,152111.41
2024-05-09T09:17:57.874Z,152311.67
2024-05-09T09:19:00.186Z,152225.67
2024-05-09T09:20:08.924Z,152334.86
2024-05-09T09:21:12.028Z,152329.72
2024-05-09T09:22:17.035Z,152034.38
2024-05-09T09:23:19.599Z,152211.53
2024-05-09T09:24:21.608Z,151931.72
2024-05-09T09:25:24.950Z,151931.72
2024-05-09T09:26:30.636Z,151895.80
2024-05-09T09:27:33.315Z,151962.52
2024-05-09T09:28:39.346Z,151999.72
2024-05-09T09:29:41.929Z,152108.88
2024-05-09T09:30:45.989Z,152193.59
2024-05-09T09:31:59.664Z,152052.31
2024-05-09T09:33:01.850Z,152092.16
2024-05-09T09:34:06.918Z,152137.11
2024-05-09T09:35:09.167Z,151915.05
2024-05-09T09:36:11.786Z,151998.45
2024-05-09T09:37:16.860Z,151766.23
2024-05-09T09:38:22.269Z,151817.53
2024-05-09T09:39:27.102Z,151818.81
2024-05-09T09:40:35.101Z,151844.53
2024-05-09T09:41:38.347Z,151734.19
2024-05-09T09:42:42.925Z,151813.69
2024-05-09T09:43:45.781Z,151811.11
2024-05-09T09:44:58.170Z,151826.55
2024-05-09T09:45:57.357Z,151782.91
2024-05-09T09:47:01.689Z,151895.80
2024-05-09T09:48:05.515Z,151944.59
2024-05-09T09:49:08.971Z,152098.59
2024-05-09T09:50:17.107Z,152198.70
2024-05-09T09:51:18.818Z,151757.28
2024-05-09T09:52:21.743Z,151747.00
2024-05-09T09:53:24.025Z,151789.33
2024-05-09T09:54:29.633Z,151939.42
2024-05-09T09:55:34.870Z,151802.14
2024-05-09T09:56:38.648Z,151840.69
2024-05-09T09:57:43.068Z,151926.59
2024-05-09T09:58:47.434Z,151835.52
2024-05-09T09:59:51.683Z,151604.72
2024-05-09T10:00:54.605Z,151644.45
2024-05-09T10:01:57.337Z,151613.69
2024-05-09T10:03:02.909Z,151784.22
2024-05-09T10:04:05.761Z,151721.37
2024-05-09T10:05:08.942Z,151782.91
2024-05-09T10:06:13.054Z,151817.53
2024-05-09T10:07:18.033Z,151970.22
2024-05-09T10:08:22.304Z,151744.47
2024-05-09T10:09:24.962Z,151603.41
2024-05-09T10:10:32.401Z,151911.20
2024-05-09T10:11:37.014Z,152062.61
2024-05-09T10:12:36.560Z,152131.94
2024-05-09T10:13:40.834Z,152212.84
2024-05-09T10:14:51.684Z,152216.66
2024-05-09T10:15:54.253Z,152253.92
2024-05-09T10:17:05.771Z,152171.73
2024-05-09T10:18:07.972Z,151947.13
2024-05-09T10:19:22.750Z,152121.70
2024-05-09T10:20:28.257Z,151899.66
2024-05-09T10:21:28.974Z,152060.02
2024-05-09T10:22:31.726Z,152067.72
2024-05-09T10:23:33.937Z,152052.31
2024-05-09T10:24:51.523Z,152001.03
2024-05-09T10:25:59.580Z,151888.09
2024-05-09T10:27:03.406Z,151934.30
2024-05-09T10:28:09.185Z,151812.42
2024-05-09T10:29:16.706Z,151854.77
2024-05-09T10:30:29.820Z,151882.98
2024-05-09T10:31:28.765Z,151888.09
2024-05-09T10:32:39.465Z,152006.16
2024-05-09T10:33:46.581Z,151826.55
2024-05-09T10:35:07.397Z,151800.88
2024-05-09T10:36:12.903Z,151813.69
2024-05-09T10:37:15.588Z,151631.59
2024-05-09T10:38:18.619Z,151654.69
2024-05-09T10:39:21.856Z,151843.22
2024-05-09T10:40:29.395Z,151726.48
2024-05-09T10:41:27.958Z,151826.55
2024-05-09T10:42:30.851Z,151788.02
2024-05-09T10:43:35.218Z,152044.66
2024-05-09T10:44:37.344Z,152088.30
2024-05-09T10:45:39.530Z,152139.64
2024-05-09T10:46:42.577Z,152233.38
2024-05-09T10:47:44.728Z,152233.38
2024-05-09T10:48:47.128Z,152216.66
2024-05-09T10:49:50.004Z,152155.06
2024-05-09T10:50:53.319Z,152277.03
2024-05-09T10:51:55.370Z,152277.03
2024-05-09T10:52:57.667Z,152329.72
2024-05-09T10:54:01.907Z,151806.00
2024-05-09T10:55:05.705Z,151747.00
2024-05-09T10:56:08.218Z,151705.97
2024-05-09T10:57:10.237Z,151685.47
2024-05-09T10:58:16.905Z,151675.19
2024-05-09T10:59:18.980Z,151713.67
2024-05-09T11:00:27.662Z,151813.69
2024-05-09T11:01:26.047Z,151808.58
2024-05-09T11:02:31.278Z,151975.34
2024-05-09T11:03:33.905Z,151870.17
2024-05-09T11:04:38.582Z,151634.19
2024-05-09T11:05:43.387Z,151690.59
2024-05-09T11:06:46.478Z,151886.83
2024-05-09T11:07:49.144Z,151929.19
2024-05-09T11:08:51.863Z,151630.34
2024-05-09T11:09:54.029Z,151893.27
2024-05-09T11:10:57.486Z,152025.41
2024-05-09T11:12:01.056Z,152131.94
2024-05-09T11:13:04.500Z,152170.47
2024-05-09T11:14:13.297Z,152116.53
2024-05-09T11:15:15.944Z,152049.78
2024-05-09T11:16:24.534Z,151908.66
2024-05-09T11:17:33.670Z,151836.84
2024-05-09T11:18:38.842Z,151836.84
2024-05-09T11:19:42.015Z,151793.19
2024-05-09T11:20:44.680Z,151721.37
2024-05-09T11:21:53.242Z,151664.97
2024-05-09T11:22:57.064Z,151694.44
2024-05-09T11:23:59.733Z,151743.14
2024-05-09T11:25:02.446Z,151718.78
2024-05-09T11:26:06.177Z,151686.73
2024-05-09T11:27:08.172Z,151684.20
2024-05-09T11:28:12.206Z,151808.58
2024-05-09T11:29:15.728Z,151890.69
2024-05-09T11:30:26.658Z,151975.34
2024-05-09T11:31:22.466Z,151965.11
2024-05-09T11:32:29.375Z,151916.38
2024-05-09T11:33:32.027Z,151695.70
2024-05-09T11:34:34.348Z,151818.81
2024-05-09T11:35:36.625Z,151885.56
2024-05-09T11:36:38.896Z,152039.50
2024-05-09T11:37:40.949Z,152114.00
2024-05-09T11:38:43.107Z,151970.22
2024-05-09T11:39:46.210Z,151874.02
2024-05-09T11:40:48.680Z,151700.86
2024-05-09T11:41:51.022Z,151705.97
2024-05-09T11:42:53.765Z,151741.87
2024-05-09T11:43:56.741Z,151752.16
2024-05-09T11:44:59.026Z,151767.50
2024-05-09T11:46:01.873Z,151732.91
2024-05-09T11:47:04.059Z,151934.30
2024-05-09T11:48:06.984Z,151698.28
2024-05-09T11:49:09.594Z,151847.06
2024-05-09T11:50:19.538Z,151843.22
2024-05-09T11:51:18.565Z,151863.73
2024-05-09T11:52:22.507Z,151971.50
2024-05-09T11:53:25.390Z,152052.31
2024-05-09T11:54:29.747Z,151988.16
2024-05-09T11:55:35.784Z,152056.17
2024-05-09T11:56:37.948Z,152144.81
2024-05-09T11:57:41.790Z,152148.63
2024-05-09T11:58:44.355Z,152013.84
2024-05-09T11:59:46.298Z,152022.81
2024-05-09T12:00:50.776Z,151983.05
2024-05-09T12:01:52.979Z,152071.58
2024-05-09T12:02:55.891Z,151936.88
2024-05-09T12:03:58.177Z,151926.59
2024-05-09T12:05:00.504Z,152008.73